createdAt,value
2022-10-15T00:00:09.587Z,90.85
2022-10-15T00:01:15.497Z,91.13
2022-10-15T00:02:18.594Z,91.34
2022-10-15T00:03:22.685Z,91.11
2022-10-15T00:04:25.758Z,91.42
2022-10-15T00:05:30.015Z,91.58
2022-10-15T00:06:33.163Z,91.92
2022-10-15T00:07:37.296Z,91.70
2022-10-15T00:08:42.053Z,92.61
2022-10-15T00:09:46.006Z,92.41
2022-10-15T00:10:48.975Z,92.31
2022-10-15T00:11:53.076Z,92.39
2022-10-15T00:12:56.153Z,92.95
2022-10-15T00:14:01.689Z,92.63
2022-10-15T00:15:05.563Z,92.94
2022-10-15T00:16:10.717Z,93.42
2022-10-15T00:17:13.641Z,93.26
2022-10-15T00:18:17.583Z,93.07
2022-10-15T00:19:21.495Z,93.01
2022-10-15T00:20:24.376Z,92.85
2022-10-15T00:21:28.752Z,93.32
2022-10-15T00:22:31.665Z,93.70
2022-10-15T00:23:35.814Z,93.16
2022-10-15T00:24:40.356Z,93.60
2022-10-15T00:25:44.356Z,93.36
2022-10-15T00:26:47.224Z,93.21
2022-10-15T00:27:51.185Z,93.43
2022-10-15T00:28:55.972Z,93.77
2022-10-15T00:30:00.689Z,93.34
2022-10-15T00:31:06.160Z,93.51
2022-10-15T00:32:10.137Z,93.29
2022-10-15T00:33:15.425Z,93.90
2022-10-15T00:34:19.447Z,93.01
2022-10-15T00:35:23.102Z,93.61
2022-10-15T00:36:28.626Z,92.88
2022-10-15T00:37:31.558Z,93.64
2022-10-15T00:38:35.624Z,92.88
2022-10-15T00:39:39.974Z,92.71
2022-10-15T00:40:44.337Z,93.49
2022-10-15T00:41:47.387Z,93.52
2022-10-15T00:42:52.437Z,93.38
2022-10-15T00:43:56.776Z,93.00
2022-10-15T00:45:01.471Z,92.56
2022-10-15T00:46:04.563Z,92.74
2022-10-15T00:47:15.275Z,92.77
2022-10-15T00:48:18.205Z,93.23
2022-10-15T00:49:26.761Z,93.68
2022-10-15T00:50:29.747Z,93.49
2022-10-15T00:51:38.426Z,93.36
2022-10-15T00:52:45.215Z,92.99
2022-10-15T00:53:50.148Z,93.63
2022-10-15T00:54:58.755Z,93.08
2022-10-15T00:56:03.434Z,93.14
2022-10-15T00:57:06.781Z,93.37
2022-10-15T00:59:22.354Z,93.75
2022-10-15T01:00:26.368Z,93.00
2022-10-15T01:01:30.108Z,93.15
2022-10-15T01:02:34.175Z,93.95
2022-10-15T01:03:37.186Z,93.65
2022-10-15T01:04:42.476Z,92.99
2022-10-15T01:05:49.268Z,93.20
2022-10-15T01:06:52.230Z,93.68
2022-10-15T01:07:56.234Z,93.48
2022-10-15T01:09:00.146Z,93.91
2022-10-15T01:10:07.184Z,93.79
2022-10-15T01:11:18.497Z,93.31
2022-10-15T01:12:30.516Z,93.34
2022-10-15T01:13:36.558Z,92.98
2022-10-15T01:14:47.427Z,93.43
2022-10-15T01:15:55.600Z,93.39
2022-10-15T01:17:08.206Z,93.12
2022-10-15T01:18:14.866Z,93.15
2022-10-15T01:19:30.217Z,93.21
2022-10-15T01:20:57.466Z,93.13
2022-10-15T01:22:03.746Z,93.06
2022-10-15T01:23:28.205Z,92.38
2022-10-15T01:25:00.293Z,92.68
2022-10-15T01:26:19.049Z,92.46
2022-10-15T01:27:35.722Z,91.49
2022-10-15T01:28:44.925Z,91.31
2022-10-15T01:30:13.144Z,90.78
2022-10-15T01:31:22.284Z,90.87
2022-10-15T01:32:29.806Z,90.73
2022-10-15T01:33:38.846Z,91.01
2022-10-15T01:34:44.703Z,90.39
2022-10-15T01:35:51.337Z,90.46
2022-10-15T01:36:59.374Z,90.60
2022-10-15T01:38:09.907Z,89.89
2022-10-15T01:39:17.283Z,89.93
2022-10-15T01:40:22.886Z,89.80
2022-10-15T01:41:30.516Z,89.89
2022-10-15T01:42:38.114Z,89.96
2022-10-15T01:43:46.567Z,90.20
2022-10-15T01:45:08.117Z,90.46
2022-10-15T01:46:28.284Z,89.47
2022-10-15T01:47:44.671Z,90.07
2022-10-15T01:48:49.448Z,90.29
2022-10-15T01:49:53.976Z,91.03
2022-10-15T01:51:01.964Z,90.64
2022-10-15T01:52:11.606Z,90.75
2022-10-15T01:53:16.588Z,90.65
2022-10-15T01:54:21.397Z,91.06
2022-10-15T01:55:25.768Z,90.99
2022-10-15T01:56:31.063Z,90.60
2022-10-15T01:57:35.016Z,90.97
2022-10-15T01:58:40.677Z,90.70
2022-10-15T01:59:44.345Z,91.14
2022-10-15T02:00:49.137Z,91.07
2022-10-15T02:01:56.161Z,91.14
2022-10-15T02:03:02.398Z,91.22
2022-10-15T02:04:19.281Z,92.30
2022-10-15T02:05:27.936Z,92.33
2022-10-15T02:06:34.160Z,91.88
2022-10-15T02:07:45.115Z,92.33
2022-10-15T02:08:56.984Z,92.84
2022-10-15T02:10:07.857Z,92.56
2022-10-15T02:11:12.879Z,92.44
2022-10-15T02:12:32.058Z,92.54
2022-10-15T02:13:45.596Z,93.16
2022-10-15T02:14:54.846Z,93.33
2022-10-15T02:16:08.546Z,93.21
2022-10-15T02:17:14.503Z,93.10
2022-10-15T02:18:20.994Z,93.34
2022-10-15T02:19:30.276Z,93.49
2022-10-15T02:20:43.423Z,93.26
2022-10-15T02:21:48.416Z,93.73
2022-10-15T02:22:58.276Z,93.81
2022-10-15T02:24:08.115Z,93.39
2022-10-15T02:25:17.016Z,93.46
2022-10-15T02:26:22.066Z,94.10
2022-10-15T02:27:26.466Z,93.82
2022-10-15T02:28:30.318Z,93.84
2022-10-15T02:29:36.955Z,94.01
2022-10-15T02:30:40.114Z,93.44
2022-10-15T02:31:49.185Z,93.61
2022-10-15T02:32:56.836Z,93.70
2022-10-15T02:34:04.476Z,93.33
2022-10-15T02:35:08.804Z,93.16
2022-10-15T02:36:16.643Z,93.72
2022-10-15T02:37:21.814Z,93.51
2022-10-15T02:38:27.215Z,93.45
2022-10-15T02:39:30.578Z,93.32
2022-10-15T02:40:36.907Z,93.83
2022-10-15T02:41:40.397Z,93.72
2022-10-15T02:42:47.125Z,94.05
2022-10-15T02:43:50.136Z,93.75
2022-10-15T02:44:54.865Z,92.85
2022-10-15T02:45:57.833Z,92.90
2022-10-15T02:47:02.721Z,93.06
2022-10-15T02:48:08.441Z,93.29
2022-10-15T02:49:12.595Z,93.21
2022-10-15T02:50:15.618Z,92.77
2022-10-15T02:51:19.645Z,92.95
2022-10-15T02:52:22.777Z,92.62
2022-10-15T02:53:26.940Z,92.76
2022-10-15T02:54:30.574Z,92.81
2022-10-15T02:55:37.802Z,92.96
2022-10-15T02:56:40.762Z,93.57
2022-10-15T02:57:45.444Z,93.60
2022-10-15T02:58:48.516Z,93.45
2022-10-15T02:59:52.497Z,93.58
2022-10-15T03:00:55.856Z,93.56
2022-10-15T03:01:59.906Z,93.50
2022-10-15T03:03:03.975Z,93.88
2022-10-15T03:04:09.548Z,93.70
2022-10-15T03:05:13.464Z,93.76
2022-10-15T03:06:17.636Z,93.26
2022-10-15T03:07:21.036Z,92.76
2022-10-15T03:08:26.125Z,93.15
2022-10-15T03:09:29.346Z,93.18
2022-10-15T03:10:33.324Z,92.83
2022-10-15T03:11:36.396Z,93.35
2022-10-15T03:12:40.288Z,93.17
2022-10-15T03:13:43.371Z,92.90
2022-10-15T03:14:47.396Z,92.91
2022-10-15T03:15:50.684Z,92.55
2022-10-15T03:16:54.767Z,92.47
2022-10-15T03:17:57.745Z,92.36
2022-10-15T03:19:01.968Z,92.11
2022-10-15T03:20:07.354Z,91.92
2022-10-15T03:21:14.554Z,92.56
2022-10-15T03:22:17.874Z,92.09
2022-10-15T03:23:30.765Z,92.51
2022-10-15T03:24:49.585Z,92.11
2022-10-15T03:25:59.684Z,92.26
2022-10-15T03:27:03.096Z,92.52
2022-10-15T03:28:07.306Z,92.40
2022-10-15T03:29:13.896Z,91.99
2022-10-15T03:30:31.613Z,92.03
2022-10-15T03:31:34.724Z,92.34
2022-10-15T03:32:41.047Z,91.94
2022-10-15T03:33:44.041Z,91.65
2022-10-15T03:34:48.061Z,91.78
2022-10-15T03:35:54.756Z,91.61
2022-10-15T03:36:59.330Z,91.57
2022-10-15T03:38:02.314Z,91.83
2022-10-15T03:39:08.485Z,91.61
2022-10-15T03:40:14.601Z,91.81
2022-10-15T03:41:20.426Z,92.36
2022-10-15T03:42:24.960Z,92.24
2022-10-15T03:43:29.176Z,92.44
2022-10-15T03:44:36.406Z,92.90
2022-10-15T03:45:45.836Z,93.35
2022-10-15T03:46:57.920Z,93.13
2022-10-15T03:48:06.994Z,92.75
2022-10-15T03:49:10.994Z,92.58
2022-10-15T03:50:15.157Z,92.77
2022-10-15T03:51:23.463Z,92.47
2022-10-15T03:52:35.954Z,92.35
2022-10-15T03:53:39.004Z,92.38
2022-10-15T03:54:43.575Z,92.40
2022-10-15T03:55:47.543Z,92.66
2022-10-15T03:56:52.174Z,92.07
2022-10-15T03:58:08.892Z,92.59
2022-10-15T03:59:17.658Z,92.15
2022-10-15T04:00:26.687Z,91.72
2022-10-15T04:01:35.637Z,92.18
2022-10-15T04:02:38.698Z,91.95
2022-10-15T04:03:44.864Z,91.67
2022-10-15T04:04:47.896Z,91.75
2022-10-15T04:05:54.154Z,91.87
2022-10-15T04:07:02.545Z,91.98
2022-10-15T04:08:08.500Z,91.47
2022-10-15T04:09:15.798Z,91.56
2022-10-15T04:10:19.859Z,91.97
2022-10-15T04:11:22.814Z,91.68
2022-10-15T04:12:36.916Z,92.19
2022-10-15T04:13:39.975Z,91.46
2022-10-15T04:14:44.094Z,91.77
2022-10-15T04:15:47.157Z,91.70
2022-10-15T04:16:51.347Z,91.74
2022-10-15T04:17:59.048Z,91.61
2022-10-15T04:19:07.348Z,91.75
2022-10-15T04:20:13.191Z,92.13
2022-10-15T04:21:21.743Z,91.69
2022-10-15T04:22:33.408Z,91.94
2022-10-15T04:23:38.274Z,92.21
2022-10-15T04:25:11.500Z,92.61
2022-10-15T04:26:14.399Z,92.90
2022-10-15T04:27:18.450Z,92.88
2022-10-15T04:28:21.448Z,92.56
2022-10-15T04:29:25.514Z,92.30
2022-10-15T04:30:29.704Z,92.15
2022-10-15T04:31:37.736Z,92.29
2022-10-15T04:32:41.338Z,92.23
2022-10-15T04:33:45.646Z,92.32
2022-10-15T04:34:49.537Z,92.81
2022-10-15T04:36:02.341Z,92.98
2022-10-15T04:37:26.798Z,92.86
2022-10-15T04:38:31.235Z,92.77
2022-10-15T04:39:38.173Z,92.94
2022-10-15T04:40:41.337Z,92.84
2022-10-15T04:41:45.407Z,93.23
2022-10-15T04:42:50.534Z,93.49
2022-10-15T04:43:55.768Z,92.99
2022-10-15T04:44:58.769Z,92.68
2022-10-15T04:46:05.161Z,93.33
2022-10-15T04:47:08.165Z,93.32
2022-10-15T04:48:24.615Z,92.69
2022-10-15T04:49:27.586Z,92.69
2022-10-15T04:50:32.351Z,92.86
2022-10-15T04:51:55.705Z,92.85
2022-10-15T04:53:07.334Z,92.88
2022-10-15T04:54:17.188Z,93.06
2022-10-15T04:55:32.715Z,92.74
2022-10-15T04:56:38.504Z,93.05
2022-10-15T04:57:41.404Z,92.77
2022-10-15T04:58:47.114Z,93.52
2022-10-15T04:59:56.877Z,93.83
2022-10-15T05:01:01.896Z,93.90
2022-10-15T05:02:10.764Z,94.19
2022-10-15T05:03:14.317Z,94.82
2022-10-15T05:04:26.971Z,96.14
2022-10-15T05:05:29.998Z,96.83
2022-10-15T05:06:36.547Z,97.12
2022-10-15T05:08:01.497Z,97.64
2022-10-15T05:09:05.639Z,97.94
2022-10-15T05:10:11.482Z,96.99
2022-10-15T05:11:16.035Z,97.82
2022-10-15T05:12:20.684Z,97.94
2022-10-15T05:13:24.035Z,97.96
2022-10-15T05:14:28.417Z,97.53
2022-10-15T05:15:50.567Z,98.02
2022-10-15T05:16:57.891Z,98.34
2022-10-15T05:18:02.787Z,98.66
2022-10-15T05:19:14.875Z,98.98
2022-10-15T05:20:18.124Z,99.07
2022-10-15T05:21:23.244Z,98.65
2022-10-15T05:22:30.114Z,99.02
2022-10-15T05:23:37.147Z,99.15
2022-10-15T05:24:59.496Z,98.86
2022-10-15T05:26:12.307Z,99.38
2022-10-15T05:27:16.334Z,99.30
2022-10-15T05:28:19.365Z,99.09
2022-10-15T05:29:23.515Z,98.94
2022-10-15T05:30:26.506Z,99.13
2022-10-15T05:31:32.656Z,98.83
2022-10-15T05:33:02.646Z,98.36
2022-10-15T05:34:09.112Z,99.49
2022-10-15T05:35:23.283Z,99.26
2022-10-15T05:36:31.915Z,99.66
2022-10-15T05:37:36.104Z,100.00
2022-10-15T05:38:39.875Z,99.96
2022-10-15T05:39:43.974Z,100.00
2022-10-15T05:40:49.366Z,100.00
2022-10-15T05:41:58.654Z,100.00
2022-10-15T05:43:19.965Z,100.00
2022-10-15T05:44:25.742Z,100.00
2022-10-15T05:45:28.713Z,100.00
2022-10-15T05:46:38.530Z,100.00
2022-10-15T05:47:41.518Z,100.00
2022-10-15T05:48:55.769Z,100.00
2022-10-15T05:49:58.884Z,100.00
2022-10-15T05:51:09.707Z,100.00
2022-10-15T05:52:12.807Z,100.00
2022-10-15T05:53:55.605Z,100.00
2022-10-15T05:54:58.576Z,100.00
2022-10-15T05:56:02.534Z,100.00
2022-10-15T05:57:08.625Z,100.00
2022-10-15T05:58:12.626Z,100.00
2022-10-15T05:59:15.616Z,100.00
2022-10-15T06:00:19.624Z,100.00
2022-10-15T06:01:29.564Z,100.00
2022-10-15T06:02:32.612Z,100.00
2022-10-15T06:03:36.965Z,100.00
2022-10-15T06:04:39.856Z,100.00
2022-10-15T06:05:43.998Z,100.00
2022-10-15T06:06:47.033Z,100.00
2022-10-15T06:07:50.984Z,100.00
2022-10-15T06:08:55.735Z,100.00
2022-10-15T06:09:58.654Z,100.00
2022-10-15T06:11:09.354Z,100.00
2022-10-15T06:12:13.919Z,100.00
2022-10-15T06:13:18.129Z,100.00
2022-10-15T06:14:22.875Z,100.00
2022-10-15T06:15:25.795Z,100.00
2022-10-15T06:16:30.111Z,100.00
2022-10-15T06:17:33.326Z,100.00
2022-10-15T06:18:38.736Z,100.00
2022-10-15T06:19:41.694Z,100.00
2022-10-15T06:20:45.991Z,100.00
2022-10-15T06:21:51.516Z,100.00
2022-10-15T06:22:58.766Z,100.00
2022-10-15T06:24:03.137Z,100.00
2022-10-15T06:25:11.197Z,100.00
2022-10-15T06:26:14.337Z,100.00
2022-10-15T06:27:20.588Z,100.00
2022-10-15T06:28:23.770Z,100.00
2022-10-15T06:29:28.043Z,100.00
2022-10-15T06:30:32.331Z,100.00
2022-10-15T06:31:36.383Z,100.00
2022-10-15T06:32:39.555Z,100.00
2022-10-15T06:33:43.621Z,100.00
2022-10-15T06:34:46.965Z,100.00
2022-10-15T06:35:51.064Z,100.00
2022-10-15T06:36:54.046Z,100.00
2022-10-15T06:38:03.165Z,100.00
2022-10-15T06:39:07.034Z,100.00
2022-10-15T06:40:12.177Z,100.00
2022-10-15T06:41:19.094Z,100.00
2022-10-15T06:42:24.761Z,100.00
2022-10-15T06:43:34.799Z,99.96
2022-10-15T06:44:39.856Z,100.00
2022-10-15T06:45:43.605Z,100.00
2022-10-15T06:46:53.783Z,98.90
2022-10-15T06:47:56.835Z,99.76
2022-10-15T06:49:01.089Z,99.51
2022-10-15T06:50:05.562Z,99.24
2022-10-15T06:51:10.652Z,99.20
2022-10-15T06:52:13.650Z,99.31
2022-10-15T06:53:17.644Z,98.32
2022-10-15T06:54:20.617Z,98.22
2022-10-15T06:55:24.696Z,96.69
2022-10-15T06:56:28.076Z,95.96
2022-10-15T06:57:33.715Z,95.41
2022-10-15T06:58:36.884Z,95.50
2022-10-15T06:59:41.580Z,94.83
2022-10-15T07:00:44.707Z,94.26
2022-10-15T07:01:48.766Z,94.17
2022-10-15T07:02:51.925Z,94.54
2022-10-15T07:03:55.904Z,93.68
2022-10-15T07:04:58.836Z,93.31
2022-10-15T07:06:04.887Z,93.21
2022-10-15T07:07:08.036Z,92.70
2022-10-15T07:08:16.812Z,92.41
2022-10-15T07:09:23.305Z,91.22
2022-10-15T07:10:27.303Z,90.59
2022-10-15T07:11:31.474Z,90.04
2022-10-15T07:12:36.579Z,90.11
2022-10-15T07:13:42.096Z,89.83
2022-10-15T07:14:45.398Z,89.39
2022-10-15T07:15:54.162Z,89.42
2022-10-15T07:16:57.868Z,89.36
2022-10-15T07:18:02.644Z,89.45
2022-10-15T07:19:05.815Z,89.05
2022-10-15T07:20:10.369Z,88.62
2022-10-15T07:21:13.356Z,86.75
2022-10-15T07:22:17.352Z,87.05
2022-10-15T07:23:24.078Z,86.99
2022-10-15T07:24:31.084Z,87.18
2022-10-15T07:25:34.072Z,86.53
2022-10-15T07:26:38.306Z,86.74
2022-10-15T07:27:42.797Z,86.41
2022-10-15T07:28:46.901Z,85.62
2022-10-15T07:29:49.936Z,85.36
2022-10-15T07:30:54.266Z,85.53
2022-10-15T07:31:57.228Z,84.56
2022-10-15T07:33:01.409Z,84.64
2022-10-15T07:34:04.345Z,83.43
2022-10-15T07:35:08.859Z,84.00
2022-10-15T07:36:13.116Z,84.18
2022-10-15T07:37:18.936Z,84.06
2022-10-15T07:38:21.905Z,83.89
2022-10-15T07:39:25.899Z,83.55
2022-10-15T07:40:28.875Z,83.71
2022-10-15T07:41:32.942Z,82.79
2022-10-15T07:42:35.945Z,83.13
2022-10-15T07:43:41.305Z,82.91
2022-10-15T07:44:44.199Z,81.50
2022-10-15T07:45:51.158Z,82.57
2022-10-15T07:46:55.134Z,82.71
2022-10-15T07:47:58.057Z,81.84
2022-10-15T07:49:02.074Z,82.13
2022-10-15T07:50:05.528Z,81.82
2022-10-15T07:51:09.677Z,81.75
2022-10-15T07:52:12.715Z,81.83
2022-10-15T07:53:18.188Z,82.15
2022-10-15T07:54:29.272Z,81.16
2022-10-15T07:55:32.147Z,81.14
2022-10-15T07:56:36.183Z,80.44
2022-10-15T07:57:39.365Z,79.58
2022-10-15T07:58:51.867Z,80.28
2022-10-15T07:59:54.857Z,79.33
2022-10-15T08:01:01.564Z,78.84
2022-10-15T08:02:05.592Z,79.01
2022-10-15T08:03:08.506Z,79.44
2022-10-15T08:04:12.447Z,79.58
2022-10-15T08:05:16.484Z,79.33
2022-10-15T08:06:20.506Z,78.92
2022-10-15T08:07:23.528Z,78.69
2022-10-15T08:08:27.508Z,78.14
2022-10-15T08:09:31.424Z,77.35
2022-10-15T08:10:34.401Z,77.82
2022-10-15T08:11:38.413Z,76.30
2022-10-15T08:12:43.764Z,76.54
2022-10-15T08:13:49.623Z,76.39
2022-10-15T08:14:52.536Z,76.64
2022-10-15T08:15:59.380Z,76.59
2022-10-15T08:17:03.648Z,76.27
2022-10-15T08:18:07.676Z,76.33
2022-10-15T08:19:10.547Z,75.40
2022-10-15T08:20:14.706Z,75.70
2022-10-15T08:21:17.706Z,75.78
2022-10-15T08:22:22.030Z,75.25
2022-10-15T08:23:25.263Z,75.20
2022-10-15T08:24:30.363Z,74.98
2022-10-15T08:25:33.434Z,74.89
2022-10-15T08:26:38.446Z,74.56
2022-10-15T08:27:41.427Z,74.68
2022-10-15T08:28:45.406Z,74.13
2022-10-15T08:29:49.826Z,73.43
2022-10-15T08:30:53.797Z,73.48
2022-10-15T08:31:56.765Z,73.08
2022-10-15T08:33:00.733Z,73.07
2022-10-15T08:34:05.115Z,72.71
2022-10-15T08:35:08.756Z,72.59
2022-10-15T08:36:12.694Z,72.65
2022-10-15T08:37:16.646Z,72.39
2022-10-15T08:38:20.713Z,71.55
2022-10-15T08:39:23.601Z,71.70
2022-10-15T08:40:28.256Z,71.56
2022-10-15T08:41:35.966Z,71.22
2022-10-15T08:42:41.927Z,71.27
2022-10-15T08:43:47.157Z,70.71
2022-10-15T08:44:57.566Z,70.75
2022-10-15T08:46:11.192Z,70.55
2022-10-15T08:47:26.675Z,70.50
2022-10-15T08:48:32.684Z,70.73
2022-10-15T08:49:43.797Z,70.04
2022-10-15T08:50:53.306Z,69.87
2022-10-15T08:52:02.802Z,70.34
2022-10-15T08:53:07.078Z,70.31
2022-10-15T08:54:14.376Z,69.95
2022-10-15T08:55:20.198Z,69.30
2022-10-15T08:56:26.437Z,69.30
2022-10-15T08:57:38.213Z,68.71
2022-10-15T08:58:47.685Z,68.51
2022-10-15T08:59:55.415Z,69.18
2022-10-15T09:01:03.488Z,69.73
2022-10-15T09:02:14.323Z,68.73
2022-10-15T09:03:28.545Z,67.97
2022-10-15T09:04:36.257Z,68.19
2022-10-15T09:05:47.774Z,67.34
2022-10-15T09:06:55.216Z,67.53
2022-10-15T09:08:06.754Z,66.79
2022-10-15T09:09:16.264Z,67.02
2022-10-15T09:10:38.715Z,65.99
2022-10-15T09:11:49.224Z,66.96
2022-10-15T09:12:57.664Z,66.78
2022-10-15T09:14:00.665Z,67.39
2022-10-15T09:15:07.495Z,67.21
2022-10-15T09:16:15.583Z,67.40
2022-10-15T09:17:23.038Z,67.67
2022-10-15T09:18:29.194Z,67.57
2022-10-15T09:19:33.889Z,67.59
2022-10-15T09:20:39.546Z,67.93
2022-10-15T09:21:42.946Z,68.16
2022-10-15T09:22:47.554Z,67.36
2022-10-15T09:23:50.616Z,67.72
2022-10-15T09:24:54.756Z,67.80
2022-10-15T09:26:04.463Z,67.84
2022-10-15T09:27:11.707Z,67.83
2022-10-15T09:28:18.067Z,67.63
2022-10-15T09:29:25.425Z,68.01
2022-10-15T09:30:34.960Z,68.02
2022-10-15T09:31:43.597Z,67.87
2022-10-15T09:32:51.983Z,67.81
2022-10-15T09:34:04.752Z,68.38
2022-10-15T09:35:15.833Z,67.80
2022-10-15T09:36:31.208Z,67.17
2022-10-15T09:37:39.524Z,66.92
2022-10-15T09:38:49.740Z,67.77
2022-10-15T09:40:04.552Z,67.90
2022-10-15T09:41:17.487Z,67.86
2022-10-15T09:42:28.924Z,68.59
2022-10-15T09:43:36.448Z,68.61
2022-10-15T09:44:42.333Z,68.07
2022-10-15T09:45:47.910Z,67.98
2022-10-15T09:46:53.522Z,67.81
2022-10-15T09:48:11.908Z,68.00
2022-10-15T09:49:24.728Z,67.83
2022-10-15T09:50:46.705Z,67.61
2022-10-15T09:52:13.482Z,66.63
2022-10-15T09:53:28.515Z,66.96
2022-10-15T09:54:41.364Z,66.00
2022-10-15T09:55:48.692Z,66.36
2022-10-15T09:57:05.481Z,65.52
2022-10-15T09:58:16.162Z,65.34
2022-10-15T09:59:21.971Z,64.94
2022-10-15T10:00:24.965Z,64.31
2022-10-15T10:01:31.316Z,63.04
2022-10-15T10:02:34.411Z,62.56
2022-10-15T10:03:41.430Z,62.01
2022-10-15T10:04:44.867Z,61.22
2022-10-15T10:05:49.285Z,61.56
2022-10-15T10:06:54.865Z,61.35
2022-10-15T10:08:09.962Z,60.42
2022-10-15T10:09:17.946Z,61.42
2022-10-15T10:10:27.276Z,61.93
2022-10-15T10:11:48.883Z,60.53
2022-10-15T10:12:52.453Z,62.57
2022-10-15T10:14:02.754Z,62.64
2022-10-15T10:15:09.987Z,62.86
2022-10-15T10:16:15.794Z,62.98
2022-10-15T10:17:21.742Z,63.02
2022-10-15T10:18:26.717Z,62.20
2022-10-15T10:19:29.634Z,62.51
2022-10-15T10:20:36.657Z,62.57
2022-10-15T10:21:42.315Z,61.68
2022-10-15T10:22:51.232Z,61.38
2022-10-15T10:23:54.825Z,61.31
2022-10-15T10:24:58.785Z,61.63
2022-10-15T10:26:03.249Z,61.62
2022-10-15T10:27:20.345Z,60.86
2022-10-15T10:28:29.123Z,61.49
2022-10-15T10:29:38.040Z,61.76
2022-10-15T10:30:49.925Z,61.73
2022-10-15T10:31:54.494Z,62.03
2022-10-15T10:33:08.528Z,61.84
2022-10-15T10:34:17.735Z,62.03
2022-10-15T10:35:22.966Z,61.84
2022-10-15T10:36:29.012Z,61.92
2022-10-15T10:37:43.424Z,61.23
2022-10-15T10:38:56.713Z,61.35
2022-10-15T10:40:02.204Z,62.06
2022-10-15T10:41:09.693Z,61.99
2022-10-15T10:42:29.762Z,61.75
2022-10-15T10:43:39.110Z,61.91
2022-10-15T10:44:46.708Z,61.83
2022-10-15T10:45:58.893Z,62.06
2022-10-15T10:47:04.135Z,61.85
2022-10-15T10:48:22.528Z,62.07
2022-10-15T10:49:32.177Z,61.92
2022-10-15T10:50:40.839Z,62.32
2022-10-15T10:51:50.105Z,61.81
2022-10-15T10:52:54.401Z,61.86
2022-10-15T10:54:01.150Z,61.97
2022-10-15T10:55:07.927Z,61.92
2022-10-15T10:56:13.816Z,61.86
2022-10-15T10:57:20.858Z,61.76
2022-10-15T10:58:27.139Z,62.02
2022-10-15T10:59:34.928Z,62.49
2022-10-15T11:00:40.624Z,62.62
2022-10-15T11:01:44.633Z,62.61
2022-10-15T11:02:47.906Z,62.35
2022-10-15T11:03:53.305Z,62.22
2022-10-15T11:04:56.996Z,62.44
2022-10-15T11:06:09.124Z,62.63
2022-10-15T11:07:20.006Z,62.28
2022-10-15T11:08:28.025Z,62.06
2022-10-15T11:09:43.886Z,61.55
2022-10-15T11:10:51.284Z,61.84
2022-10-15T11:12:05.252Z,61.70
2022-10-15T11:13:28.897Z,62.26
2022-10-15T11:14:46.705Z,62.37
2022-10-15T11:15:57.535Z,62.30
2022-10-15T11:17:04.199Z,62.24
2022-10-15T11:18:26.947Z,62.20
2022-10-15T11:20:06.212Z,61.98
2022-10-15T11:21:07.669Z,61.87
2022-10-15T11:22:21.738Z,61.47
2022-10-15T11:23:38.167Z,61.03
2022-10-15T11:24:49.117Z,60.55
2022-10-15T11:26:02.484Z,60.24
2022-10-15T11:27:15.864Z,60.13
2022-10-15T11:28:32.186Z,60.24
2022-10-15T11:29:41.608Z,59.83
2022-10-15T11:30:51.856Z,59.86
2022-10-15T11:32:03.011Z,59.76
2022-10-15T11:33:49.814Z,59.05
2022-10-15T11:35:12.299Z,58.82
2022-10-15T11:36:39.275Z,59.18
2022-10-15T11:37:48.814Z,59.73
2022-10-15T11:39:02.262Z,59.64
2022-10-15T11:40:14.286Z,59.71
2022-10-15T11:41:30.791Z,59.43
2022-10-15T11:42:37.704Z,59.81
2022-10-15T11:43:53.003Z,59.91
2022-10-15T11:45:07.934Z,60.09
2022-10-15T11:46:23.515Z,60.07
2022-10-15T11:47:43.058Z,59.88
2022-10-15T11:48:57.074Z,59.37
2022-10-15T11:50:16.406Z,59.67
2022-10-15T11:51:27.758Z,60.00
2022-10-15T11:52:51.967Z,59.89
2022-10-15T11:54:19.843Z,59.60
2022-10-15T11:55:26.094Z,60.00
2022-10-15T11:56:35.035Z,59.39
2022-10-15T11:57:42.934Z,59.77
2022-10-15T11:58:49.185Z,59.59
2022-10-15T11:59:56.311Z,59.67
2022-10-15T12:01:01.658Z,59.57
2022-10-15T12:02:10.545Z,59.44
2022-10-15T12:03:16.869Z,59.39
2022-10-15T12:04:32.707Z,59.06
2022-10-15T12:05:40.837Z,59.43
2022-10-15T12:06:48.659Z,58.57
2022-10-15T12:07:51.667Z,58.38
2022-10-15T12:08:59.716Z,58.13
2022-10-15T12:10:10.083Z,58.08
2022-10-15T12:11:24.625Z,58.34
2022-10-15T12:12:35.131Z,58.28
2022-10-15T12:13:42.555Z,58.26
2022-10-15T12:14:51.576Z,58.46
2022-10-15T12:16:01.405Z,58.10
2022-10-15T12:17:11.153Z,58.20
2022-10-15T12:18:19.485Z,57.97
2022-10-15T12:19:26.933Z,58.02
2022-10-15T12:20:30.175Z,57.92
2022-10-15T12:21:41.326Z,58.68
2022-10-15T12:22:55.625Z,58.78
2022-10-15T12:23:59.655Z,59.04
2022-10-15T12:25:05.762Z,59.26
2022-10-15T12:26:28.008Z,59.32
2022-10-15T12:27:35.834Z,59.76
2022-10-15T12:28:48.652Z,59.57
2022-10-15T12:29:54.527Z,60.36
2022-10-15T12:31:02.184Z,60.26
2022-10-15T12:32:05.604Z,60.18
2022-10-15T12:33:26.321Z,60.07
2022-10-15T12:34:41.177Z,60.11
2022-10-15T12:35:44.113Z,60.46
2022-10-15T12:37:01.285Z,60.75
2022-10-15T12:38:22.244Z,60.83
2022-10-15T12:39:51.706Z,61.06
2022-10-15T12:40:58.067Z,61.52
2022-10-15T12:42:02.388Z,61.33
2022-10-15T12:43:14.691Z,60.75
2022-10-15T12:45:39.019Z,60.86
2022-10-15T12:46:44.575Z,61.05
2022-10-15T12:47:49.059Z,61.54
2022-10-15T12:48:57.412Z,61.53
2022-10-15T12:50:04.272Z,61.68
2022-10-15T12:51:41.697Z,61.46
2022-10-15T12:52:58.769Z,62.09
2022-10-15T12:54:02.931Z,61.64
2022-10-15T12:55:30.945Z,61.66
2022-10-15T12:56:42.020Z,61.60
2022-10-15T12:57:55.989Z,61.22
2022-10-15T12:58:59.953Z,61.02
2022-10-15T13:00:05.018Z,61.53
2022-10-15T13:01:29.572Z,60.94
2022-10-15T13:03:56.376Z,61.72
2022-10-15T13:04:59.507Z,61.87
2022-10-15T13:06:34.115Z,62.33
2022-10-15T13:07:40.942Z,62.41
2022-10-15T13:08:49.683Z,62.97
2022-10-15T13:09:53.191Z,62.72
2022-10-15T13:11:02.464Z,63.02
2022-10-15T13:12:06.654Z,63.68
2022-10-15T13:13:15.025Z,63.86
2022-10-15T13:14:25.445Z,64.42
2022-10-15T13:15:31.897Z,64.20
2022-10-15T13:16:37.204Z,64.56
2022-10-15T13:17:40.481Z,64.55
2022-10-15T13:18:49.884Z,64.55
2022-10-15T13:19:59.044Z,64.79
2022-10-15T13:21:03.350Z,64.85
2022-10-15T13:22:19.245Z,64.97
2022-10-15T13:23:31.656Z,65.27
2022-10-15T13:24:46.491Z,65.29
2022-10-15T13:25:51.284Z,65.77
2022-10-15T13:26:57.235Z,65.23
2022-10-15T13:28:00.237Z,65.19
2022-10-15T13:29:04.415Z,65.25
2022-10-15T13:30:12.805Z,65.45
2022-10-15T13:31:27.391Z,65.57
2022-10-15T13:32:35.440Z,65.88
2022-10-15T13:33:40.425Z,65.55
2022-10-15T13:34:45.266Z,65.37
2022-10-15T13:35:49.373Z,65.52
2022-10-15T13:36:54.517Z,65.62
2022-10-15T13:37:58.277Z,65.57
2022-10-15T13:39:07.177Z,65.91
2022-10-15T13:40:20.937Z,66.04
2022-10-15T13:41:27.160Z,66.14
2022-10-15T13:42:31.519Z,65.97
2022-10-15T13:43:34.488Z,66.15
2022-10-15T13:44:38.665Z,65.87
2022-10-15T13:45:46.933Z,65.92
2022-10-15T13:46:51.257Z,65.81
2022-10-15T13:47:55.113Z,66.02
2022-10-15T13:49:00.676Z,66.17
2022-10-15T13:50:14.575Z,65.96
2022-10-15T13:51:18.605Z,65.64
2022-10-15T13:52:21.825Z,66.00
2022-10-15T13:53:30.386Z,65.21
2022-10-15T13:54:33.361Z,65.21
2022-10-15T13:55:40.326Z,65.17
2022-10-15T13:56:49.414Z,65.58
2022-10-15T13:57:58.551Z,64.93
2022-10-15T13:59:02.439Z,65.19
2022-10-15T14:00:07.656Z,64.76
2022-10-15T14:01:17.687Z,65.03
2022-10-15T14:02:20.791Z,64.85
2022-10-15T14:03:25.946Z,64.66
2022-10-15T14:04:30.208Z,64.80
2022-10-15T14:05:34.395Z,64.52
2022-10-15T14:06:39.465Z,64.96
2022-10-15T14:07:42.455Z,65.47
2022-10-15T14:08:47.654Z,65.71
2022-10-15T14:09:52.258Z,65.63
2022-10-15T14:11:00.016Z,65.31
2022-10-15T14:12:06.596Z,65.24
2022-10-15T14:13:09.863Z,65.25
2022-10-15T14:14:30.473Z,65.42
2022-10-15T14:15:44.961Z,65.65
2022-10-15T14:16:49.704Z,65.25
2022-10-15T14:17:52.724Z,65.50
2022-10-15T14:18:59.195Z,65.44
2022-10-15T14:21:32.406Z,65.15
2022-10-15T14:22:35.893Z,65.34
2022-10-15T14:23:40.266Z,65.60
2022-10-15T14:24:44.713Z,64.86
2022-10-15T14:25:52.977Z,64.95
2022-10-15T14:27:03.926Z,65.47
2022-10-15T14:28:07.023Z,65.71
2022-10-15T14:29:18.631Z,65.22
2022-10-15T14:30:24.765Z,64.84
2022-10-15T14:31:33.579Z,64.81
2022-10-15T14:32:46.362Z,64.50